sensor_id;sensor_type;location;lat;lon;timestamp;P1;durP1;ratioP1;P2;durP2;ratioP2
20056;SDS011;10189;49.546;7.906;2023-05-07T00:00:46;6.45;;;4.75;;
20056;SDS011;10189;49.546;7.906;2023-05-07T00:03:12;8.45;;;4.57;;
20056;SDS011;10189;49.546;7.906;2023-05-07T00:05:38;5.50;;;4.10;;
20056;SDS011;10189;49.546;7.906;2023-05-07T00:08:05;7.10;;;4.30;;
20056;SDS011;10189;49.546;7.906;2023-05-07T00:10:30;5.68;;;4.32;;
20056;SDS011;10189;49.546;7.906;2023-05-07T00:12:56;6.97;;;4.10;;
20056;SDS011;10189;49.546;7.906;2023-05-07T00:15:22;5.18;;;4.20;;
20056;SDS011;10189;49.546;7.906;2023-05-07T00:17:48;6.32;;;3.70;;
20056;SDS011;10189;49.546;7.906;2023-05-07T00:20:14;5.63;;;4.10;;
20056;SDS011;10189;49.546;7.906;2023-05-07T00:22:40;4.40;;;3.50;;
20056;SDS011;10189;49.546;7.906;2023-05-07T00:25:06;4.65;;;3.80;;
20056;SDS011;10189;49.546;7.906;2023-05-07T00:27:32;6.82;;;4.28;;
20056;SDS011;10189;49.546;7.906;2023-05-07T00:29:58;5.97;;;3.90;;
20056;SDS011;10189;49.546;7.906;2023-05-07T00:32:24;5.47;;;3.47;;
20056;SDS011;10189;49.546;7.906;2023-05-07T00:34:50;3.55;;;3.13;;
20056;SDS011;10189;49.546;7.906;2023-05-07T00:37:16;5.90;;;3.85;;
20056;SDS011;10189;49.546;7.906;2023-05-07T00:39:42;8.63;;;4.18;;
20056;SDS011;10189;49.546;7.906;2023-05-07T00:42:07;4.85;;;3.85;;
20056;SDS011;10189;49.546;7.906;2023-05-07T00:44:33;7.95;;;3.85;;
20056;SDS011;10189;49.546;7.906;2023-05-07T00:47:00;7.95;;;4.30;;
20056;SDS011;10189;49.546;7.906;2023-05-07T00:49:35;5.33;;;4.10;;
20056;SDS011;10189;49.546;7.906;2023-05-07T00:52:11;3.95;;;3.58;;
20056;SDS011;10189;49.546;7.906;2023-05-07T00:54:41;5.20;;;3.50;;
20056;SDS011;10189;49.546;7.906;2023-05-07T00:57:07;7.07;;;3.92;;
20056;SDS011;10189;49.546;7.906;2023-05-07T00:59:36;4.72;;;3.65;;
20056;SDS011;10189;49.546;7.906;2023-05-07T01:02:03;5.97;;;3.50;;
20056;SDS011;10189;49.546;7.906;2023-05-07T01:04:29;5.05;;;3.90;;
20056;SDS011;10189;49.546;7.906;2023-05-07T01:06:55;5.43;;;3.63;;
20056;SDS011;10189;49.546;7.906;2023-05-07T01:09:23;4.55;;;3.58;;
20056;SDS011;10189;49.546;7.906;2023-05-07T01:11:50;6.13;;;3.85;;
20056;SDS011;10189;49.546;7.906;2023-05-07T01:14:18;4.93;;;3.90;;
20056;SDS011;10189;49.546;7.906;2023-05-07T01:16:45;5.72;;;3.75;;
20056;SDS011;10189;49.546;7.906;2023-05-07T01:19:13;5.78;;;3.95;;
20056;SDS011;10189;49.546;7.906;2023-05-07T01:21:45;5.78;;;3.83;;
20056;SDS011;10189;49.546;7.906;2023-05-07T01:24:14;5.32;;;4.20;;
20056;SDS011;10189;49.546;7.906;2023-05-07T01:26:42;4.80;;;3.83;;
20056;SDS011;10189;49.546;7.906;2023-05-07T01:29:10;7.65;;;3.70;;
20056;SDS011;10189;49.546;7.906;2023-05-07T01:31:37;5.25;;;4.18;;
20056;SDS011;10189;49.546;7.906;2023-05-07T01:34:03;5.22;;;3.80;;
20056;SDS011;10189;49.546;7.906;2023-05-07T01:36:33;4.47;;;4.07;;
20056;SDS011;10189;49.546;7.906;2023-05-07T01:39:03;4.80;;;3.67;;
20056;SDS011;10189;49.546;7.906;2023-05-07T01:41:31;5.72;;;4.00;;
20056;SDS011;10189;49.546;7.906;2023-05-07T01:43:57;5.30;;;4.03;;
20056;SDS011;10189;49.546;7.906;2023-05-07T01:46:24;5.40;;;4.53;;
20056;SDS011;10189;49.546;7.906;2023-05-07T01:48:52;4.75;;;4.28;;
20056;SDS011;10189;49.546;7.906;2023-05-07T01:51:18;6.75;;;4.30;;
20056;SDS011;10189;49.546;7.906;2023-05-07T01:53:46;7.25;;;4.40;;
20056;SDS011;10189;49.546;7.906;2023-05-07T01:56:18;4.85;;;4.10;;
20056;SDS011;10189;49.546;7.906;2023-05-07T01:58:45;6.03;;;4.25;;
20056;SDS011;10189;49.546;7.906;2023-05-07T02:01:12;5.80;;;4.40;;
20056;SDS011;10189;49.546;7.906;2023-05-07T02:03:40;5.85;;;4.05;;
20056;SDS011;10189;49.546;7.906;2023-05-07T02:06:13;5.20;;;4.20;;
20056;SDS011;10189;49.546;7.906;2023-05-07T02:08:39;8.05;;;4.35;;
20056;SDS011;10189;49.546;7.906;2023-05-07T02:11:05;6.88;;;4.63;;
20056;SDS011;10189;49.546;7.906;2023-05-07T02:13:32;6.38;;;4.57;;
20056;SDS011;10189;49.546;7.906;2023-05-07T02:16:00;4.90;;;4.30;;
20056;SDS011;10189;49.546;7.906;2023-05-07T02:18:27;4.88;;;3.75;;
20056;SDS011;10189;49.546;7.906;2023-05-07T02:20:53;6.30;;;4.10;;
20056;SDS011;10189;49.546;7.906;2023-05-07T02:23:19;5.90;;;3.97;;
20056;SDS011;10189;49.546;7.906;2023-05-07T02:25:45;5.35;;;4.00;;
20056;SDS011;10189;49.546;7.906;2023-05-07T02:28:11;5.65;;;3.90;;
20056;SDS011;10189;49.546;7.906;2023-05-07T02:30:59;6.60;;;4.40;;
20056;SDS011;10189;49.546;7.906;2023-05-07T02:33:26;7.10;;;5.70;;
20056;SDS011;10189;49.546;7.906;2023-05-07T02:35:52;6.22;;;5.30;;
20056;SDS011;10189;49.546;7.906;2023-05-07T02:38:18;7.00;;;5.80;;
20056;SDS011;10189;49.546;7.906;2023-05-07T02:40:44;6.22;;;5.47;;
20056;SDS011;10189;49.546;7.906;2023-05-07T02:43:10;7.07;;;5.90;;
20056;SDS011;10189;49.546;7.906;2023-05-07T02:45:37;6.60;;;6.00;;
20056;SDS011;10189;49.546;7.906;2023-05-07T02:48:05;8.23;;;6.75;;
20056;SDS011;10189;49.546;7.906;2023-05-07T02:50:31;6.68;;;6.07;;
20056;SDS011;10189;49.546;7.906;2023-05-07T02:52:58;7.38;;;6.60;;
20056;SDS011;10189;49.546;7.906;2023-05-07T02:55:24;6.78;;;5.68;;
20056;SDS011;10189;49.546;7.906;2023-05-07T02:57:50;5.45;;;4.85;;
20056;SDS011;10189;49.546;7.906;2023-05-07T03:00:17;5.75;;;5.15;;
20056;SDS011;10189;49.546;7.906;2023-05-07T03:02:52;6.13;;;5.25;;
20056;SDS011;10189;49.546;7.906;2023-05-07T03:05:18;8.82;;;6.90;;
20056;SDS011;10189;49.546;7.906;2023-05-07T03:07:44;8.32;;;6.20;;
20056;SDS011;10189;49.546;7.906;2023-05-07T03:10:11;7.53;;;6.72;;
20056;SDS011;10189;49.546;7.906;2023-05-07T03:12:37;11.25;;;6.60;;
20056;SDS011;10189;49.546;7.906;2023-05-07T03:15:04;7.40;;;6.47;;
20056;SDS011;10189;49.546;7.906;2023-05-07T03:17:31;8.52;;;6.75;;
20056;SDS011;10189;49.546;7.906;2023-05-07T03:19:57;9.38;;;6.63;;
20056;SDS011;10189;49.546;7.906;2023-05-07T03:22:23;6.45;;;5.85;;
20056;SDS011;10189;49.546;7.906;2023-05-07T03:24:49;7.70;;;5.78;;
20056;SDS011;10189;49.546;7.906;2023-05-07T03:27:15;7.68;;;6.00;;
20056;SDS011;10189;49.546;7.906;2023-05-07T03:29:42;5.90;;;5.30;;
20056;SDS011;10189;49.546;7.906;2023-05-07T03:32:07;7.57;;;5.63;;
20056;SDS011;10189;49.546;7.906;2023-05-07T03:34:34;7.05;;;5.28;;
20056;SDS011;10189;49.546;7.906;2023-05-07T03:37:00;6.57;;;5.40;;
20056;SDS011;10189;49.546;7.906;2023-05-07T03:39:26;7.60;;;5.88;;
20056;SDS011;10189;49.546;7.906;2023-05-07T03:41:52;6.70;;;6.00;;
20056;SDS011;10189;49.546;7.906;2023-05-07T03:44:18;8.52;;;5.72;;
20056;SDS011;10189;49.546;7.906;2023-05-07T03:46:45;7.80;;;6.28;;
20056;SDS011;10189;49.546;7.906;2023-05-07T03:49:11;7.55;;;6.35;;
20056;SDS011;10189;49.546;7.906;2023-05-07T03:51:37;5.97;;;5.43;;
20056;SDS011;10189;49.546;7.906;2023-05-07T03:54:05;7.45;;;5.78;;
20056;SDS011;10189;49.546;7.906;2023-05-07T03:56:32;8.25;;;6.32;;
20056;SDS011;10189;49.546;7.906;2023-05-07T03:58:59;8.02;;;6.05;;
20056;SDS011;10189;49.546;7.906;2023-05-07T04:01:26;6.72;;;6.05;;
20056;SDS011;10189;49.546;7.906;2023-05-07T04:03:53;7.63;;;6.35;;
20056;SDS011;10189;49.546;7.906;2023-05-07T04:06:19;7.65;;;6.63;;
20056;SDS011;10189;49.546;7.906;2023-05-07T04:08:47;8.18;;;6.55;;
20056;SDS011;10189;49.546;7.906;2023-05-07T04:11:13;6.90;;;6.18;;
20056;SDS011;10189;49.546;7.906;2023-05-07T04:13:39;9.32;;;6.93;;
20056;SDS011;10189;49.546;7.906;2023-05-07T04:16:07;8.65;;;7.15;;
20056;SDS011;10189;49.546;7.906;2023-05-07T04:18:35;9.63;;;6.85;;
20056;SDS011;10189;49.546;7.906;2023-05-07T04:21:01;8.38;;;6.80;;
20056;SDS011;10189;49.546;7.906;2023-05-07T04:23:27;8.32;;;7.00;;
20056;SDS011;10189;49.546;7.906;2023-05-07T04:25:55;7.53;;;6.80;;
20056;SDS011;10189;49.546;7.906;2023-05-07T04:28:36;7.40;;;6.70;;
20056;SDS011;10189;49.546;7.906;2023-05-07T04:31:03;7.75;;;6.75;;
20056;SDS011;10189;49.546;7.906;2023-05-07T04:33:31;9.00;;;7.03;;
20056;SDS011;10189;49.546;7.906;2023-05-07T04:35:58;7.90;;;7.10;;
20056;SDS011;10189;49.546;7.906;2023-05-07T04:38:29;7.50;;;6.80;;
20056;SDS011;10189;49.546;7.906;2023-05-07T04:41:02;9.07;;;7.68;;
20056;SDS011;10189;49.546;7.906;2023-05-07T04:43:32;10.73;;;9.10;;
20056;SDS011;10189;49.546;7.906;2023-05-07T04:45:58;14.75;;;12.20;;
20056;SDS011;10189;49.546;7.906;2023-05-07T04:48:26;23.70;;;17.88;;
20056;SDS011;10189;49.546;7.906;2023-05-07T04:50:52;26.38;;;19.40;;
20056;SDS011;10189;49.546;7.906;2023-05-07T04:53:19;27.45;;;19.67;;
20056;SDS011;10189;49.546;7.906;2023-05-07T04:55:47;21.13;;;15.93;;
20056;SDS011;10189;49.546;7.906;2023-05-07T04:58:14;9.07;;;8.00;;
20056;SDS011;10189;49.546;7.906;2023-05-07T05:00:41;10.25;;;7.57;;
20056;SDS011;10189;49.546;7.906;2023-05-07T05:03:07;7.75;;;6.78;;
20056;SDS011;10189;49.546;7.906;2023-05-07T05:05:35;7.50;;;6.18;;
20056;SDS011;10189;49.546;7.906;2023-05-07T05:08:01;6.90;;;6.30;;
20056;SDS011;10189;49.546;7.906;2023-05-07T05:10:27;8.18;;;6.47;;
20056;SDS011;10189;49.546;7.906;2023-05-07T05:12:54;7.80;;;7.00;;
20056;SDS011;10189;49.546;7.906;2023-05-07T05:15:22;9.50;;;7.68;;
20056;SDS011;10189;49.546;7.906;2023-05-07T05:17:48;8.70;;;7.03;;
20056;SDS011;10189;49.546;7.906;2023-05-07T05:20:14;9.32;;;6.22;;
20056;SDS011;10189;49.546;7.906;2023-05-07T05:22:43;7.55;;;6.28;;
20056;SDS011;10189;49.546;7.906;2023-05-07T05:25:12;7.10;;;5.97;;
20056;SDS011;10189;49.546;7.906;2023-05-07T05:27:38;5.75;;;5.13;;
20056;SDS011;10189;49.546;7.906;2023-05-07T05:30:04;7.85;;;5.30;;
20056;SDS011;10189;49.546;7.906;2023-05-07T05:32:33;9.13;;;7.03;;
20056;SDS011;10189;49.546;7.906;2023-05-07T05:34:59;10.23;;;8.13;;
20056;SDS011;10189;49.546;7.906;2023-05-07T05:37:25;7.28;;;6.00;;
20056;SDS011;10189;49.546;7.906;2023-05-07T05:39:52;6.45;;;5.22;;
20056;SDS011;10189;49.546;7.906;2023-05-07T05:42:20;5.40;;;4.43;;
20056;SDS011;10189;49.546;7.906;2023-05-07T05:44:46;9.20;;;5.43;;
20056;SDS011;10189;49.546;7.906;2023-05-07T05:47:12;9.48;;;7.72;;
20056;SDS011;10189;49.546;7.906;2023-05-07T05:49:39;13.80;;;9.95;;
20056;SDS011;10189;49.546;7.906;2023-05-07T05:52:06;12.02;;;9.00;;
20056;SDS011;10189;49.546;7.906;2023-05-07T05:54:32;7.53;;;5.63;;
20056;SDS011;10189;49.546;7.906;2023-05-07T05:56:58;6.95;;;4.60;;
20056;SDS011;10189;49.546;7.906;2023-05-07T05:59:24;5.18;;;4.68;;
20056;SDS011;10189;49.546;7.906;2023-05-07T06:01:52;6.53;;;5.00;;
20056;SDS011;10189;49.546;7.906;2023-05-07T06:04:17;7.07;;;4.95;;
20056;SDS011;10189;49.546;7.906;2023-05-07T06:06:43;6.03;;;5.25;;
20056;SDS011;10189;49.546;7.906;2023-05-07T06:09:10;7.13;;;5.00;;
20056;SDS011;10189;49.546;7.906;2023-05-07T06:11:40;5.88;;;5.30;;
20056;SDS011;10189;49.546;7.906;2023-05-07T06:14:07;7.90;;;4.90;;
20056;SDS011;10189;49.546;7.906;2023-05-07T06:16:33;5.30;;;4.53;;
20056;SDS011;10189;49.546;7.906;2023-05-07T06:18:59;6.32;;;5.05;;
20056;SDS011;10189;49.546;7.906;2023-05-07T06:21:25;5.75;;;5.15;;
20056;SDS011;10189;49.546;7.906;2023-05-07T06:23:51;5.38;;;4.85;;
20056;SDS011;10189;49.546;7.906;2023-05-07T06:26:17;7.22;;;4.65;;
20056;SDS011;10189;49.546;7.906;2023-05-07T06:28:46;6.75;;;4.55;;
20056;SDS011;10189;49.546;7.906;2023-05-07T06:31:17;5.95;;;4.63;;
20056;SDS011;10189;49.546;7.906;2023-05-07T06:33:58;4.60;;;4.20;;
20056;SDS011;10189;49.546;7.906;2023-05-07T06:36:30;7.05;;;4.05;;
20056;SDS011;10189;49.546;7.906;2023-05-07T06:38:59;4.95;;;4.45;;
20056;SDS011;10189;49.546;7.906;2023-05-07T06:41:25;6.72;;;4.50;;
20056;SDS011;10189;49.546;7.906;2023-05-07T06:43:51;7.32;;;4.40;;
20056;SDS011;10189;49.546;7.906;2023-05-07T06:46:29;4.80;;;4.30;;
20056;SDS011;10189;49.546;7.906;2023-05-07T06:48:55;5.65;;;4.97;;
20056;SDS011;10189;49.546;7.906;2023-05-07T06:51:22;5.97;;;5.38;;
20056;SDS011;10189;49.546;7.906;2023-05-07T06:53:48;5.72;;;4.78;;
20056;SDS011;10189;49.546;7.906;2023-05-07T06:56:14;6.85;;;4.70;;
20056;SDS011;10189;49.546;7.906;2023-05-07T06:58:40;6.22;;;4.90;;
20056;SDS011;10189;49.546;7.906;2023-05-07T07:01:07;5.95;;;4.07;;
20056;SDS011;10189;49.546;7.906;2023-05-07T07:03:34;5.07;;;4.57;;
20056;SDS011;10189;49.546;7.906;2023-05-07T07:06:00;5.40;;;4.15;;
20056;SDS011;10189;49.546;7.906;2023-05-07T07:08:28;7.78;;;5.30;;
20056;SDS011;10189;49.546;7.906;2023-05-07T07:10:54;4.90;;;4.45;;
20056;SDS011;10189;49.546;7.906;2023-05-07T07:13:21;5.97;;;4.30;;
20056;SDS011;10189;49.546;7.906;2023-05-07T07:15:47;4.60;;;4.20;;
20056;SDS011;10189;49.546;7.906;2023-05-07T07:18:13;4.40;;;3.92;;
20056;SDS011;10189;49.546;7.906;2023-05-07T07:20:41;5.18;;;4.20;;
20056;SDS011;10189;49.546;7.906;2023-05-07T07:23:09;5.90;;;4.50;;
20056;SDS011;10189;49.546;7.906;2023-05-07T07:25:35;5.10;;;4.63;;
20056;SDS011;10189;49.546;7.906;2023-05-07T07:28:01;4.90;;;4.40;;
20056;SDS011;10189;49.546;7.906;2023-05-07T07:30:27;5.18;;;4.68;;
20056;SDS011;10189;49.546;7.906;2023-05-07T07:32:54;5.32;;;4.82;;
20056;SDS011;10189;49.546;7.906;2023-05-07T07:35:25;5.20;;;4.70;;
20056;SDS011;10189;49.546;7.906;2023-05-07T07:37:51;4.50;;;4.18;;
20056;SDS011;10189;49.546;7.906;2023-05-07T07:40:18;5.43;;;4.40;;
20056;SDS011;10189;49.546;7.906;2023-05-07T07:42:44;5.90;;;4.10;;
20056;SDS011;10189;49.546;7.906;2023-05-07T07:45:11;5.65;;;4.57;;
20056;SDS011;10189;49.546;7.906;2023-05-07T07:47:42;4.68;;;4.28;;
20056;SDS011;10189;49.546;7.906;2023-05-07T07:50:08;6.10;;;4.38;;
20056;SDS011;10189;49.546;7.906;2023-05-07T07:52:34;6.22;;;5.47;;
20056;SDS011;10189;49.546;7.906;2023-05-07T07:55:01;5.50;;;4.60;;
20056;SDS011;10189;49.546;7.906;2023-05-07T07:57:27;5.70;;;4.72;;
20056;SDS011;10189;49.546;7.906;2023-05-07T07:59:54;4.80;;;4.00;;
20056;SDS011;10189;49.546;7.906;2023-05-07T08:02:20;5.60;;;4.28;;
20056;SDS011;10189;49.546;7.906;2023-05-07T08:04:48;5.00;;;4.50;;
20056;SDS011;10189;49.546;7.906;2023-05-07T08:07:14;5.35;;;4.45;;
20056;SDS011;10189;49.546;7.906;2023-05-07T08:09:43;4.55;;;3.85;;
20056;SDS011;10189;49.546;7.906;2023-05-07T08:12:10;4.85;;;3.97;;
20056;SDS011;10189;49.546;7.906;2023-05-07T08:14:37;6.05;;;4.43;;
20056;SDS011;10189;49.546;7.906;2023-05-07T08:17:05;4.75;;;4.35;;
20056;SDS011;10189;49.546;7.906;2023-05-07T08:19:31;6.07;;;3.90;;
20056;SDS011;10189;49.546;7.906;2023-05-07T08:21:57;6.00;;;4.50;;
20056;SDS011;10189;49.546;7.906;2023-05-07T08:24:24;5.30;;;4.43;;
20056;SDS011;10189;49.546;7.906;2023-05-07T08:26:51;4.78;;;4.10;;
20056;SDS011;10189;49.546;7.906;2023-05-07T08:29:17;4.75;;;4.35;;
20056;SDS011;10189;49.546;7.906;2023-05-07T08:31:43;5.20;;;4.60;;
20056;SDS011;10189;49.546;7.906;2023-05-07T08:34:09;7.90;;;5.07;;
20056;SDS011;10189;49.546;7.906;2023-05-07T08:36:37;6.57;;;4.63;;
20056;SDS011;10189;49.546;7.906;2023-05-07T08:39:03;5.60;;;5.10;;
20056;SDS011;10189;49.546;7.906;2023-05-07T08:41:29;5.88;;;5.10;;
20056;SDS011;10189;49.546;7.906;2023-05-07T08:43:57;5.72;;;4.95;;
20056;SDS011;10189;49.546;7.906;2023-05-07T08:46:28;6.88;;;4.70;;
20056;SDS011;10189;49.546;7.906;2023-05-07T08:48:57;5.03;;;4.53;;
20056;SDS011;10189;49.546;7.906;2023-05-07T08:51:24;7.35;;;6.65;;
20056;SDS011;10189;49.546;7.906;2023-05-07T08:53:51;6.30;;;5.20;;
20056;SDS011;10189;49.546;7.906;2023-05-07T08:56:22;5.57;;;4.50;;
20056;SDS011;10189;49.546;7.906;2023-05-07T08:58:51;7.78;;;5.72;;
20056;SDS011;10189;49.546;7.906;2023-05-07T09:01:17;6.55;;;5.75;;
20056;SDS011;10189;49.546;7.906;2023-05-07T09:03:46;7.05;;;5.55;;
20056;SDS011;10189;49.546;7.906;2023-05-07T09:06:14;4.55;;;4.10;;
20056;SDS011;10189;49.546;7.906;2023-05-07T09:08:41;7.78;;;6.28;;
20056;SDS011;10189;49.546;7.906;2023-05-07T09:11:20;4.90;;;4.40;;
20056;SDS011;10189;49.546;7.906;2023-05-07T09:13:48;5.30;;;4.80;;
20056;SDS011;10189;49.546;7.906;2023-05-07T09:16:28;5.40;;;4.20;;
20056;SDS011;10189;49.546;7.906;2023-05-07T09:18:59;5.47;;;4.90;;
20056;SDS011;10189;49.546;7.906;2023-05-07T09:21:26;5.13;;;3.85;;
20056;SDS011;10189;49.546;7.906;2023-05-07T09:23:55;9.88;;;4.65;;
20056;SDS011;10189;49.546;7.906;2023-05-07T09:26:27;5.65;;;5.03;;
20056;SDS011;10189;49.546;7.906;2023-05-07T09:28:54;5.60;;;4.78;;
20056;SDS011;10189;49.546;7.906;2023-05-07T09:31:20;6.78;;;4.88;;
20056;SDS011;10189;49.546;7.906;2023-05-07T09:33:48;5.47;;;4.25;;
20056;SDS011;10189;49.546;7.906;2023-05-07T09:36:14;5.18;;;4.68;;
20056;SDS011;10189;49.546;7.906;2023-05-07T09:38:40;5.00;;;4.25;;
20056;SDS011;10189;49.546;7.906;2023-05-07T09:41:08;5.07;;;4.05;;
20056;SDS011;10189;49.546;7.906;2023-05-07T09:43:43;6.20;;;3.78;;
20056;SDS011;10189;49.546;7.906;2023-05-07T09:46:13;6.15;;;4.10;;
20056;SDS011;10189;49.546;7.906;2023-05-07T09:48:45;4.20;;;3.60;;
20056;SDS011;10189;49.546;7.906;2023-05-07T09:51:29;7.07;;;4.45;;
20056;SDS011;10189;49.546;7.906;2023-05-07T09:54:14;4.88;;;3.67;;
20056;SDS011;10189;49.546;7.906;2023-05-07T09:56:45;5.10;;;4.13;;
20056;SDS011;10189;49.546;7.906;2023-05-07T09:59:16;8.63;;;7.80;;
20056;SDS011;10189;49.546;7.906;2023-05-07T10:01:45;5.07;;;4.50;;
20056;SDS011;10189;49.546;7.906;2023-05-07T10:04:12;7.25;;;4.20;;
20056;SDS011;10189;49.546;7.906;2023-05-07T10:06:41;4.68;;;4.15;;
20056;SDS011;10189;49.546;7.906;2023-05-07T10:09:10;4.55;;;3.95;;
20056;SDS011;10189;49.546;7.906;2023-05-07T10:11:38;8.05;;;4.70;;
20056;SDS011;10189;49.546;7.906;2023-05-07T10:14:08;6.07;;;4.53;;
20056;SDS011;10189;49.546;7.906;2023-05-07T10:16:36;4.97;;;4.38;;
20056;SDS011;10189;49.546;7.906;2023-05-07T10:19:06;5.37;;;4.87;;
20056;SDS011;10189;49.546;7.906;2023-05-07T10:21:39;5.32;;;4.03;;
20056;SDS011;10189;49.546;7.906;2023-05-07T10:24:27;4.43;;;4.03;;
20056;SDS011;10189;49.546;7.906;2023-05-07T10:27:05;6.25;;;4.72;;
20056;SDS011;10189;49.546;7.906;2023-05-07T10:34:53;5.78;;;4.40;;
20056;SDS011;10189;49.546;7.906;2023-05-07T10:37:22;6.18;;;4.43;;
20056;SDS011;10189;49.546;7.906;2023-05-07T10:39:50;4.60;;;4.20;;
20056;SDS011;10189;49.546;7.906;2023-05-07T10:42:18;5.13;;;4.07;;
20056;SDS011;10189;49.546;7.906;2023-05-07T10:44:49;5.07;;;4.63;;
20056;SDS011;10189;49.546;7.906;2023-05-07T10:47:22;6.30;;;4.70;;
20056;SDS011;10189;49.546;7.906;2023-05-07T10:52:22;6.07;;;4.55;;
20056;SDS011;10189;49.546;7.906;2023-05-07T11:00:50;5.07;;;4.00;;
20056;SDS011;10189;49.546;7.906;2023-05-07T11:03:29;5.25;;;4.70;;
20056;SDS011;10189;49.546;7.906;2023-05-07T11:06:09;4.43;;;4.00;;
20056;SDS011;10189;49.546;7.906;2023-05-07T11:08:57;4.82;;;3.80;;
20056;SDS011;10189;49.546;7.906;2023-05-07T11:11:47;5.90;;;4.45;;
20056;SDS011;10189;49.546;7.906;2023-05-07T11:14:44;7.75;;;4.95;;
20056;SDS011;10189;49.546;7.906;2023-05-07T11:17:22;6.10;;;4.63;;
20056;SDS011;10189;49.546;7.906;2023-05-07T11:19:55;5.28;;;4.35;;
20056;SDS011;10189;49.546;7.906;2023-05-07T11:22:40;4.32;;;3.70;;
20056;SDS011;10189;49.546;7.906;2023-05-07T11:25:18;4.40;;;4.00;;
20056;SDS011;10189;49.546;7.906;2023-05-07T11:30:22;6.57;;;4.13;;
20056;SDS011;10189;49.546;7.906;2023-05-07T11:32:48;5.80;;;4.35;;
20056;SDS011;10189;49.546;7.906;2023-05-07T11:35:16;5.30;;;3.85;;
20056;SDS011;10189;49.546;7.906;2023-05-07T11:37:44;4.70;;;4.30;;
20056;SDS011;10189;49.546;7.906;2023-05-07T11:40:12;5.47;;;4.00;;
20056;SDS011;10189;49.546;7.906;2023-05-07T11:42:39;4.97;;;4.57;;
20056;SDS011;10189;49.546;7.906;2023-05-07T11:45:07;7.20;;;4.50;;
20056;SDS011;10189;49.546;7.906;2023-05-07T11:47:34;7.28;;;4.72;;
20056;SDS011;10189;49.546;7.906;2023-05-07T11:50:08;5.00;;;4.50;;
20056;SDS011;10189;49.546;7.906;2023-05-07T11:52:36;4.75;;;4.35;;
20056;SDS011;10189;49.546;7.906;2023-05-07T11:55:04;4.90;;;4.40;;
20056;SDS011;10189;49.546;7.906;2023-05-07T11:57:32;4.93;;;4.28;;
20056;SDS011;10189;49.546;7.906;2023-05-07T12:00:00;4.50;;;4.10;;
20056;SDS011;10189;49.546;7.906;2023-05-07T12:02:37;4.72;;;4.32;;
20056;SDS011;10189;49.546;7.906;2023-05-07T12:05:04;5.05;;;4.05;;
20056;SDS011;10189;49.546;7.906;2023-05-07T12:09:58;5.05;;;4.45;;
20056;SDS011;10189;49.546;7.906;2023-05-07T12:12:24;5.03;;;4.15;;
20056;SDS011;10189;49.546;7.906;2023-05-07T12:14:52;5.85;;;4.82;;
20056;SDS011;10189;49.546;7.906;2023-05-07T12:17:18;5.30;;;4.40;;
20056;SDS011;10189;49.546;7.906;2023-05-07T12:19:45;4.45;;;4.05;;
20056;SDS011;10189;49.546;7.906;2023-05-07T12:22:11;4.80;;;4.25;;
20056;SDS011;10189;49.546;7.906;2023-05-07T12:24:44;5.75;;;4.88;;
20056;SDS011;10189;49.546;7.906;2023-05-07T12:27:22;5.50;;;4.40;;
20056;SDS011;10189;49.546;7.906;2023-05-07T12:29:49;5.00;;;3.97;;
20056;SDS011;10189;49.546;7.906;2023-05-07T12:32:16;5.32;;;4.82;;
20056;SDS011;10189;49.546;7.906;2023-05-07T12:34:49;5.15;;;4.65;;
20056;SDS011;10189;49.546;7.906;2023-05-07T12:37:16;5.40;;;4.90;;
20056;SDS011;10189;49.546;7.906;2023-05-07T12:40:05;7.20;;;5.45;;
20056;SDS011;10189;49.546;7.906;2023-05-07T12:42:35;6.85;;;5.95;;
20056;SDS011;10189;49.546;7.906;2023-05-07T12:45:08;6.80;;;5.20;;
20056;SDS011;10189;49.546;7.906;2023-05-07T12:47:46;6.00;;;5.40;;
20056;SDS011;10189;49.546;7.906;2023-05-07T12:50:16;6.80;;;6.20;;
20056;SDS011;10189;49.546;7.906;2023-05-07T12:52:43;7.55;;;5.70;;
20056;SDS011;10189;49.546;7.906;2023-05-07T12:55:12;5.95;;;5.45;;
20056;SDS011;10189;49.546;7.906;2023-05-07T12:57:41;7.50;;;6.30;;
20056;SDS011;10189;49.546;7.906;2023-05-07T13:00:40;5.95;;;5.40;;
20056;SDS011;10189;49.546;7.906;2023-05-07T13:03:08;6.88;;;6.00;;
20056;SDS011;10189;49.546;7.906;2023-05-07T13:05:34;6.65;;;5.97;;
20056;SDS011;10189;49.546;7.906;2023-05-07T13:08:00;6.28;;;5.57;;
20056;SDS011;10189;49.546;7.906;2023-05-07T13:10:27;6.25;;;5.47;;
20056;SDS011;10189;49.546;7.906;2023-05-07T13:12:53;5.60;;;5.10;;
20056;SDS011;10189;49.546;7.906;2023-05-07T13:15:20;6.32;;;5.72;;
20056;SDS011;10189;49.546;7.906;2023-05-07T13:17:48;6.75;;;6.05;;
20056;SDS011;10189;49.546;7.906;2023-05-07T13:20:14;6.22;;;5.47;;
20056;SDS011;10189;49.546;7.906;2023-05-07T13:22:40;6.80;;;5.35;;
20056;SDS011;10189;49.546;7.906;2023-05-07T13:25:06;5.53;;;5.03;;
20056;SDS011;10189;49.546;7.906;2023-05-07T13:27:33;6.63;;;5.70;;
20056;SDS011;10189;49.546;7.906;2023-05-07T13:30:02;6.10;;;5.50;;
20056;SDS011;10189;49.546;7.906;2023-05-07T13:32:29;4.70;;;4.22;;
20056;SDS011;10189;49.546;7.906;2023-05-07T13:34:57;6.28;;;5.55;;
20056;SDS011;10189;49.546;7.906;2023-05-07T13:37:23;7.07;;;5.90;;
20056;SDS011;10189;49.546;7.906;2023-05-07T13:39:49;5.75;;;4.90;;
20056;SDS011;10189;49.546;7.906;2023-05-07T13:42:16;5.30;;;4.88;;
20056;SDS011;10189;49.546;7.906;2023-05-07T13:44:42;21.10;;;19.10;;
20056;SDS011;10189;49.546;7.906;2023-05-07T13:47:08;10.25;;;9.25;;
20056;SDS011;10189;49.546;7.906;2023-05-07T13:49:34;8.85;;;7.95;;
20056;SDS011;10189;49.546;7.906;2023-05-07T13:52:00;6.95;;;6.30;;
20056;SDS011;10189;49.546;7.906;2023-05-07T13:54:27;6.60;;;6.00;;
20056;SDS011;10189;49.546;7.906;2023-05-07T13:56:52;7.50;;;6.57;;
20056;SDS011;10189;49.546;7.906;2023-05-07T13:59:18;10.13;;;7.25;;
20056;SDS011;10189;49.546;7.906;2023-05-07T14:01:44;8.57;;;7.75;;
20056;SDS011;10189;49.546;7.906;2023-05-07T14:04:10;7.70;;;6.90;;
20056;SDS011;10189;49.546;7.906;2023-05-07T14:06:36;7.68;;;6.97;;
20056;SDS011;10189;49.546;7.906;2023-05-07T14:09:02;8.80;;;7.70;;
20056;SDS011;10189;49.546;7.906;2023-05-07T14:11:29;9.55;;;8.50;;
20056;SDS011;10189;49.546;7.906;2023-05-07T14:13:55;12.00;;;10.77;;
20056;SDS011;10189;49.546;7.906;2023-05-07T14:16:21;12.65;;;11.30;;
20056;SDS011;10189;49.546;7.906;2023-05-07T14:18:47;12.07;;;10.88;;
20056;SDS011;10189;49.546;7.906;2023-05-07T14:21:13;11.13;;;10.02;;
20056;SDS011;10189;49.546;7.906;2023-05-07T14:23:39;10.88;;;9.75;;
20056;SDS011;10189;49.546;7.906;2023-05-07T14:26:05;11.93;;;10.73;;
20056;SDS011;10189;49.546;7.906;2023-05-07T14:28:31;12.90;;;11.55;;
20056;SDS011;10189;49.546;7.906;2023-05-07T14:30:58;10.43;;;9.43;;
20056;SDS011;10189;49.546;7.906;2023-05-07T14:33:24;11.98;;;10.73;;
20056;SDS011;10189;49.546;7.906;2023-05-07T14:35:51;13.10;;;10.60;;
20056;SDS011;10189;49.546;7.906;2023-05-07T14:38:17;12.15;;;11.05;;
20056;SDS011;10189;49.546;7.906;2023-05-07T14:40:43;12.10;;;10.88;;
20056;SDS011;10189;49.546;7.906;2023-05-07T14:43:10;11.05;;;9.90;;
20056;SDS011;10189;49.546;7.906;2023-05-07T14:45:36;10.38;;;9.13;;
20056;SDS011;10189;49.546;7.906;2023-05-07T14:48:02;11.45;;;9.43;;
20056;SDS011;10189;49.546;7.906;2023-05-07T14:50:28;9.68;;;8.73;;
20056;SDS011;10189;49.546;7.906;2023-05-07T14:52:54;10.13;;;9.13;;
20056;SDS011;10189;49.546;7.906;2023-05-07T14:55:21;17.30;;;15.38;;
20056;SDS011;10189;49.546;7.906;2023-05-07T14:57:47;17.75;;;15.63;;
20056;SDS011;10189;49.546;7.906;2023-05-07T15:00:15;13.07;;;10.55;;
20056;SDS011;10189;49.546;7.906;2023-05-07T15:02:44;11.00;;;9.90;;
20056;SDS011;10189;49.546;7.906;2023-05-07T15:05:10;8.43;;;7.47;;
20056;SDS011;10189;49.546;7.906;2023-05-07T15:07:38;8.52;;;6.95;;
20056;SDS011;10189;49.546;7.906;2023-05-07T15:10:07;8.45;;;7.55;;